createdAt,value
2017-09-28T10:51:57.001Z,420.00
2017-09-28T10:52:56.696Z,416.00
2017-09-28T10:53:56.709Z,488.00
2017-09-28T10:56:57.432Z,296.00
2017-09-28T10:58:25.035Z,276.00
2017-09-28T11:00:29.110Z,88.00
2017-09-28T11:01:29.121Z,76.00
2017-09-28T11:03:22.159Z,140.00
2017-09-28T11:04:22.148Z,216.00
2017-09-28T11:06:15.034Z,264.00
2017-09-28T11:07:15.030Z,228.00
2017-09-28T11:08:15.033Z,280.00
2017-09-28T11:09:15.032Z,284.00
2017-09-28T11:11:03.279Z,256.00
2017-09-28T11:12:03.000Z,212.00
2017-09-28T11:13:03.014Z,208.00
2017-09-28T11:14:03.014Z,236.00
2017-09-28T11:15:03.024Z,276.00
2017-09-28T11:16:03.017Z,296.00
2017-09-28T11:17:03.030Z,304.00
2017-09-28T11:18:03.037Z,292.00
2017-09-28T11:27:50.722Z,416.00
2017-09-28T11:29:42.177Z,416.00
2017-09-28T11:31:06.587Z,312.00
2017-09-28T11:32:06.594Z,380.00
2017-09-28T11:33:59.653Z,284.00
2017-09-28T13:16:08.824Z,1632.00
2017-09-28T13:17:08.556Z,1696.00
2017-09-28T13:18:08.535Z,1608.00
2017-09-28T13:19:08.535Z,780.00
2017-09-28T13:20:08.538Z,848.00
2017-09-28T13:21:08.538Z,968.00
2017-09-28T13:38:33.300Z,3180.00
2017-09-28T13:39:33.271Z,3100.00
2017-09-28T13:40:33.280Z,3064.00
2017-09-28T13:41:33.269Z,3104.00
2017-09-28T13:42:33.282Z,3228.00
2017-09-28T13:43:33.278Z,3340.00
2017-09-28T13:44:33.280Z,3440.00
2017-09-28T13:45:33.289Z,3604.00
2017-09-28T13:46:33.288Z,3712.00
2017-09-28T13:47:33.289Z,3784.00
2017-09-28T13:48:33.297Z,3772.00
2017-09-28T13:49:33.297Z,3776.00
2017-09-28T13:50:33.305Z,3772.00
2017-09-28T13:51:33.312Z,3784.00
2017-09-28T13:52:33.331Z,3780.00
2017-09-28T13:53:33.319Z,3756.00
2017-09-28T13:54:33.322Z,3732.00
2017-09-28T13:55:33.407Z,3720.00
2017-09-28T13:56:33.335Z,3736.00
2017-09-28T13:57:33.349Z,3700.00
2017-09-28T13:58:33.347Z,3592.00
2017-09-28T13:59:33.361Z,3588.00
2017-09-28T14:00:33.362Z,3584.00
2017-09-28T14:01:33.372Z,3520.00
2017-09-28T14:02:33.376Z,3452.00
2017-09-28T14:03:33.384Z,3336.00
2017-09-28T14:04:33.388Z,3280.00
2017-09-28T14:05:33.394Z,3240.00
2017-09-28T14:06:33.404Z,3180.00
2017-09-28T14:07:33.419Z,3032.00
2017-09-28T14:08:33.422Z,2976.00
2017-09-28T14:09:33.426Z,2916.00
2017-09-28T14:10:33.432Z,2928.00
2017-09-28T14:11:33.437Z,2788.00
2017-09-28T14:12:34.548Z,2604.00
2017-09-28T14:13:33.454Z,2612.00
2017-09-28T14:14:33.463Z,2656.00
2017-09-28T14:15:33.477Z,2568.00
2017-09-28T14:16:33.475Z,2428.00
2017-09-28T14:17:33.481Z,2344.00
2017-09-28T14:18:33.493Z,2272.00
2017-09-28T14:19:33.511Z,2084.00
2017-09-28T14:20:33.507Z,1936.00
2017-09-28T14:21:33.518Z,1892.00
2017-09-28T14:22:33.522Z,1912.00
2017-09-28T14:23:33.536Z,1944.00
2017-09-28T14:24:33.543Z,1904.00
2017-09-28T14:25:33.545Z,1868.00
2017-09-28T14:26:33.556Z,1856.00
2017-09-28T14:27:33.554Z,1816.00
2017-09-28T14:28:33.570Z,1768.00
2017-09-28T14:29:33.573Z,1732.00
2017-09-28T14:30:33.581Z,1668.00
2017-09-28T14:31:33.584Z,1640.00
2017-09-28T14:32:33.591Z,1676.00
2017-09-28T14:33:33.605Z,1712.00
2017-09-28T14:34:33.610Z,1736.00
2017-09-28T14:35:33.619Z,1732.00
2017-09-28T14:36:33.628Z,1688.00
2017-09-28T14:37:33.635Z,1704.00
2017-09-28T14:38:33.647Z,1728.00
2017-09-28T14:39:33.656Z,1732.00
2017-09-28T14:40:33.657Z,1720.00
2017-09-28T14:41:33.661Z,1720.00
2017-09-28T14:42:33.670Z,1696.00
2017-09-28T14:43:33.677Z,1700.00
2017-09-28T14:44:33.683Z,1724.00
2017-09-28T14:45:33.691Z,1736.00
2017-09-28T14:46:33.697Z,1756.00
2017-09-28T14:47:33.732Z,1760.00
2017-09-28T14:48:33.716Z,1764.00
2017-09-28T14:49:33.717Z,1756.00
2017-09-28T14:50:33.739Z,1748.00
2017-09-28T14:51:33.741Z,1736.00
2017-09-28T14:52:33.747Z,1720.00
2017-09-28T14:55:05.898Z,1676.00
2017-09-28T14:56:05.591Z,1652.00
2017-09-28T14:57:05.596Z,1628.00
2017-09-28T14:58:05.601Z,1604.00
2017-09-28T14:59:05.607Z,1572.00
2017-09-28T15:00:05.613Z,1536.00
2017-09-28T15:01:05.621Z,1496.00
2017-09-28T15:02:05.628Z,1452.00
2017-09-28T15:03:05.641Z,1424.00
2017-09-28T15:04:05.647Z,1380.00
2017-09-28T15:06:05.660Z,1312.00
2017-09-28T15:07:05.664Z,1288.00
2017-09-28T15:08:05.677Z,1256.00
2017-09-28T15:09:05.676Z,1224.00
2017-09-28T15:10:05.681Z,1196.00
2017-09-28T15:11:05.692Z,1160.00
2017-09-28T15:12:05.700Z,1128.00
2017-09-28T15:13:05.705Z,1096.00
2017-09-28T15:14:05.715Z,1064.00
2017-09-28T15:15:05.721Z,1028.00
2017-09-28T15:16:05.728Z,1000.00
2017-09-28T15:17:05.737Z,980.00
2017-09-28T15:18:05.739Z,956.00
2017-09-28T15:19:05.745Z,924.00
2017-09-28T15:20:05.769Z,900.00
2017-09-28T15:21:05.760Z,872.00
2017-09-28T15:22:05.769Z,848.00
2017-09-28T15:23:05.779Z,828.00
2017-09-28T15:24:05.789Z,812.00
2017-09-28T15:25:05.796Z,804.00
2017-09-28T15:26:05.803Z,784.00
2017-09-28T15:27:05.810Z,772.00
2017-09-28T15:28:05.816Z,760.00
2017-09-28T15:29:05.819Z,748.00
2017-09-28T15:30:05.826Z,736.00
2017-09-28T15:31:05.840Z,720.00
2017-09-28T15:32:05.844Z,712.00
2017-09-28T15:33:05.845Z,688.00
2017-09-28T15:34:05.857Z,672.00
2017-09-28T15:35:05.861Z,656.00
2017-09-28T15:36:05.865Z,640.00
2017-09-28T15:37:05.877Z,624.00
2017-09-28T15:38:05.889Z,612.00
2017-09-28T15:39:05.889Z,596.00
2017-09-28T15:40:05.902Z,588.00
2017-09-28T15:41:06.078Z,584.00
2017-09-28T15:42:05.917Z,584.00
2017-09-28T15:43:05.924Z,588.00
2017-09-28T15:44:05.930Z,592.00
2017-09-28T15:45:05.935Z,600.00
2017-09-28T15:46:05.958Z,612.00
2017-09-28T15:47:05.955Z,624.00
2017-09-28T15:48:05.957Z,640.00
2017-09-28T15:49:05.961Z,648.00
2017-09-28T15:50:05.976Z,664.00
2017-09-28T15:51:05.977Z,680.00
2017-09-28T15:52:05.975Z,696.00
2017-09-28T15:53:05.985Z,704.00
2017-09-28T15:54:05.994Z,712.00
2017-09-28T15:55:05.994Z,716.00
2017-09-28T15:56:06.008Z,716.00
2017-09-28T15:57:06.010Z,712.00
2017-09-28T15:58:06.019Z,700.00
2017-09-28T15:59:06.027Z,684.00
2017-09-28T16:00:06.036Z,672.00
2017-09-28T16:01:06.045Z,648.00
2017-09-28T16:02:06.045Z,628.00
2017-09-28T16:03:06.059Z,604.00
2017-09-28T16:04:06.059Z,584.00
2017-09-28T16:05:06.067Z,564.00
2017-09-28T16:06:06.077Z,540.00
2017-09-28T16:07:06.118Z,520.00
2017-09-28T16:08:06.086Z,500.00
2017-09-28T16:09:06.130Z,484.00
2017-09-28T16:10:06.097Z,468.00
2017-09-28T16:11:06.106Z,448.00
2017-09-28T16:12:06.111Z,428.00
2017-09-28T16:13:06.119Z,412.00
2017-09-28T16:14:06.128Z,396.00
2017-09-28T16:15:06.135Z,376.00
2017-09-28T16:16:06.142Z,364.00
2017-09-28T16:17:06.152Z,348.00
2017-09-28T16:18:06.151Z,336.00
2017-09-28T16:19:06.159Z,320.00
2017-09-28T16:20:06.167Z,312.00
2017-09-28T16:21:06.179Z,296.00
2017-09-28T16:22:06.198Z,288.00
2017-09-28T16:23:06.184Z,280.00
2017-09-28T16:24:06.191Z,272.00
2017-09-28T16:25:06.201Z,264.00
2017-09-28T16:26:06.248Z,256.00
2017-09-28T16:27:06.214Z,248.00
2017-09-28T16:28:06.268Z,244.00
2017-09-28T16:29:06.233Z,236.00
2017-09-28T16:30:06.238Z,232.00
2017-09-28T16:31:06.235Z,228.00
2017-09-28T16:32:06.242Z,224.00
2017-09-28T16:33:06.251Z,212.00
2017-09-28T16:34:06.256Z,204.00
2017-09-28T16:35:06.267Z,196.00
2017-09-28T16:36:06.269Z,188.00
2017-09-28T16:37:06.280Z,180.00
2017-09-28T16:38:06.292Z,176.00
2017-09-28T16:39:06.291Z,172.00
2017-09-28T16:40:06.294Z,160.00
2017-09-28T16:41:06.303Z,152.00
2017-09-28T16:42:06.308Z,148.00
2017-09-28T16:43:06.314Z,140.00
2017-09-28T16:44:06.331Z,136.00
2017-09-28T16:45:06.333Z,132.00
2017-09-28T16:46:06.336Z,128.00
2017-09-28T16:47:06.342Z,124.00
2017-09-28T16:48:06.353Z,120.00
2017-09-28T16:49:06.351Z,116.00
2017-09-28T16:50:06.362Z,112.00
2017-09-28T16:51:06.367Z,108.00
2017-09-28T16:52:06.377Z,104.00
2017-09-28T16:53:06.385Z,96.00
2017-09-28T16:54:06.533Z,96.00
2017-09-28T16:55:06.394Z,88.00
2017-09-28T16:56:06.396Z,84.00
2017-09-28T16:57:06.422Z,80.00
2017-09-28T16:58:06.408Z,72.00
2017-09-28T16:59:06.416Z,68.00
2017-09-28T17:00:06.433Z,64.00
2017-09-28T17:01:06.436Z,60.00
2017-09-28T17:02:06.434Z,52.00
2017-09-28T17:03:06.446Z,52.00
2017-09-28T17:04:06.446Z,44.00
2017-09-28T17:05:06.452Z,40.00
2017-09-28T17:06:06.467Z,36.00
2017-09-28T17:07:06.478Z,32.00
2017-09-28T17:08:06.474Z,32.00
2017-09-28T17:09:06.484Z,28.00
2017-09-28T17:10:06.484Z,24.00
2017-09-28T17:11:06.489Z,20.00
2017-09-28T17:12:06.502Z,16.00
2017-09-28T17:13:06.617Z,16.00
2017-09-28T17:14:06.591Z,16.00
2017-09-28T17:15:06.519Z,12.00
2017-09-28T17:16:06.535Z,8.00
2017-09-28T17:17:06.526Z,8.00
2017-09-28T17:18:06.534Z,8.00
2017-09-28T17:19:06.548Z,4.00
2017-09-28T17:20:07.203Z,4.00
2017-09-28T17:21:07.261Z,4.00
2017-09-28T17:22:06.562Z,4.00
2017-09-28T17:23:06.565Z,4.00
2017-09-28T17:24:06.574Z,4.00
2017-09-28T17:25:06.577Z,0.00
2017-09-28T17:26:06.743Z,4.00
2017-09-28T17:27:06.608Z,4.00
2017-09-28T17:28:06.593Z,0.00
2017-09-28T17:29:06.616Z,0.00
2017-09-28T17:30:06.606Z,0.00
2017-09-28T17:31:06.610Z,0.00
2017-09-28T17:32:06.618Z,0.00
2017-09-28T17:33:06.627Z,0.00
2017-09-28T17:35:38.663Z,0.00
2017-09-28T17:36:38.363Z,0.00
2017-09-28T17:37:40.144Z,0.00
2017-09-28T17:38:38.373Z,0.00
2017-09-28T17:39:38.378Z,0.00
2017-09-28T17:40:38.385Z,0.00
2017-09-28T17:41:38.396Z,0.00
2017-09-28T17:42:38.404Z,0.00
2017-09-28T17:43:38.404Z,0.00
2017-09-28T17:44:38.413Z,0.00
2017-09-28T17:45:38.421Z,0.00
2017-09-28T17:46:38.422Z,0.00
2017-09-28T17:47:38.432Z,0.00
2017-09-28T17:48:38.435Z,0.00
2017-09-28T17:49:38.437Z,0.00
2017-09-28T17:50:38.446Z,0.00
2017-09-28T17:51:38.457Z,0.00
2017-09-28T17:52:38.455Z,0.00
2017-09-28T17:53:38.477Z,0.00
2017-09-28T17:54:38.467Z,0.00
2017-09-28T17:55:38.480Z,0.00
2017-09-28T17:56:38.480Z,0.00
2017-09-28T17:57:38.486Z,0.00
2017-09-28T17:58:38.490Z,0.00
2017-09-28T17:59:38.497Z,0.00
2017-09-28T18:00:38.504Z,0.00
2017-09-28T18:01:38.506Z,0.00
2017-09-28T18:02:38.514Z,0.00
2017-09-28T18:03:38.524Z,0.00
2017-09-28T18:04:38.529Z,0.00
2017-09-28T18:05:38.531Z,0.00
2017-09-28T18:06:38.534Z,0.00
2017-09-28T18:07:38.545Z,0.00
2017-09-28T18:08:38.547Z,0.00
2017-09-28T18:09:38.556Z,0.00
2017-09-28T18:10:38.556Z,0.00
2017-09-28T18:11:38.568Z,0.00
2017-09-28T18:12:38.571Z,0.00
2017-09-28T18:13:38.574Z,0.00
2017-09-28T18:14:38.582Z,0.00
2017-09-28T18:15:38.587Z,0.00
2017-09-28T18:16:38.591Z,0.00
2017-09-28T18:17:38.599Z,0.00
2017-09-28T18:18:38.605Z,0.00
2017-09-28T18:19:38.608Z,0.00
2017-09-28T18:20:38.625Z,0.00
2017-09-28T18:21:38.621Z,0.00
2017-09-28T18:22:38.624Z,0.00
2017-09-28T18:23:38.630Z,0.00
2017-09-28T18:24:38.637Z,0.00
2017-09-28T18:25:38.650Z,0.00
2017-09-28T18:26:38.647Z,0.00
2017-09-28T18:27:38.657Z,0.00
2017-09-28T18:28:38.662Z,0.00
2017-09-28T18:29:38.664Z,0.00
2017-09-28T18:30:38.669Z,0.00
2017-09-28T18:31:38.672Z,0.00
2017-09-28T18:32:38.675Z,0.00
2017-09-28T18:33:38.680Z,0.00
2017-09-28T18:34:38.693Z,0.00
2017-09-28T18:35:38.690Z,0.00
2017-09-28T18:36:38.697Z,0.00
2017-09-28T18:37:38.713Z,0.00
2017-09-28T18:38:38.713Z,0.00
2017-09-28T18:39:38.716Z,0.00
2017-09-28T18:40:38.725Z,0.00
2017-09-28T18:41:38.727Z,0.00
2017-09-28T18:42:39.665Z,0.00
2017-09-28T18:43:38.736Z,0.00
2017-09-28T18:44:38.740Z,0.00
2017-09-28T18:45:38.746Z,0.00
2017-09-28T18:46:38.784Z,0.00
2017-09-28T18:47:38.757Z,0.00
2017-09-28T18:48:38.767Z,0.00
2017-09-28T18:49:38.768Z,0.00
2017-09-28T18:50:38.775Z,0.00
2017-09-28T18:51:38.790Z,0.00
2017-09-28T18:52:38.785Z,0.00
2017-09-28T18:53:38.789Z,0.00
2017-09-28T18:54:39.272Z,0.00
2017-09-28T18:55:38.805Z,0.00
2017-09-28T18:56:38.810Z,0.00
2017-09-28T18:57:38.816Z,0.00
2017-09-28T18:58:38.815Z,0.00
2017-09-28T18:59:38.822Z,0.00
2017-09-28T19:00:38.840Z,0.00
2017-09-28T19:01:38.832Z,0.00
2017-09-28T19:02:38.837Z,0.00
2017-09-28T19:03:38.851Z,0.00
2017-09-28T19:04:38.848Z,0.00
2017-09-28T19:05:38.857Z,0.00
2017-09-28T19:06:38.867Z,0.00
2017-09-28T19:07:38.898Z,0.00
2017-09-28T19:08:38.900Z,0.00
2017-09-28T19:09:38.880Z,0.00
2017-09-28T19:10:38.883Z,0.00
2017-09-28T19:11:38.886Z,0.00
2017-09-28T19:12:38.902Z,0.00
2017-09-28T19:13:38.897Z,0.00
2017-09-28T19:14:39.462Z,0.00
2017-09-28T19:15:39.882Z,0.00
2017-09-28T19:16:38.917Z,0.00
2017-09-28T19:17:38.925Z,0.00
2017-09-28T19:18:38.925Z,0.00
2017-09-28T19:19:38.934Z,0.00
2017-09-28T19:20:38.933Z,0.00
2017-09-28T19:21:38.945Z,0.00
2017-09-28T19:22:38.952Z,0.00
2017-09-28T19:23:38.955Z,0.00
2017-09-28T19:24:38.970Z,0.00
2017-09-28T19:25:39.079Z,0.00
2017-09-28T19:26:39.063Z,0.00
2017-09-28T19:27:38.985Z,0.00
2017-09-28T19:28:38.975Z,0.00
2017-09-28T19:29:38.984Z,0.00
2017-09-28T19:30:39.003Z,0.00
2017-09-28T19:31:39.019Z,0.00
2017-09-28T19:32:39.031Z,0.00
2017-09-28T19:33:39.003Z,0.00
2017-09-28T19:34:39.008Z,0.00
2017-09-28T19:35:39.022Z,0.00
2017-09-28T19:36:39.021Z,0.00
2017-09-28T19:37:39.036Z,0.00
2017-09-28T19:38:39.039Z,0.00
2017-09-28T19:39:39.038Z,0.00
2017-09-28T19:40:39.042Z,0.00
2017-09-28T19:41:39.050Z,0.00
2017-09-28T19:42:39.077Z,0.00
2017-09-28T19:43:39.062Z,0.00
2017-09-28T19:44:39.072Z,0.00
2017-09-28T19:45:39.073Z,0.00
2017-09-28T19:46:39.075Z,0.00
2017-09-28T19:47:39.080Z,0.00
2017-09-28T19:48:39.082Z,0.00
2017-09-28T19:49:39.098Z,0.00
2017-09-28T19:50:39.108Z,0.00
2017-09-28T19:51:39.100Z,0.00
2017-09-28T19:52:39.101Z,0.00
2017-09-28T19:53:39.115Z,0.00
2017-09-28T19:54:39.117Z,0.00
2017-09-28T19:55:39.120Z,0.00
2017-09-28T19:56:39.123Z,0.00
2017-09-28T19:57:39.137Z,0.00
2017-09-28T19:58:39.141Z,0.00
2017-09-28T19:59:39.141Z,0.00
2017-09-28T20:00:39.149Z,0.00
2017-09-28T20:01:39.154Z,0.00
2017-09-28T20:02:39.158Z,0.00
2017-09-28T20:03:39.166Z,0.00
2017-09-28T20:04:39.178Z,0.00
2017-09-28T20:05:39.175Z,0.00
2017-09-28T20:06:39.181Z,0.00
2017-09-28T20:07:39.187Z,0.00
2017-09-28T20:09:39.202Z,0.00
2017-09-28T20:10:39.199Z,0.00
2017-09-28T20:11:39.208Z,0.00
2017-09-28T20:12:39.216Z,0.00
2017-09-28T20:13:39.225Z,0.00
2017-09-28T20:14:39.223Z,0.00
2017-09-28T20:15:39.230Z,0.00
2017-09-28T20:16:39.239Z,0.00
2017-09-28T20:17:39.241Z,0.00
2017-09-28T20:18:39.246Z,0.00
2017-09-28T20:19:39.254Z,0.00
2017-09-28T20:20:39.257Z,0.00
2017-09-28T20:21:39.267Z,0.00
2017-09-28T20:22:39.265Z,0.00
2017-09-28T20:23:39.271Z,0.00
2017-09-28T20:24:39.282Z,0.00
2017-09-28T20:25:39.282Z,0.00
2017-09-28T20:26:39.295Z,0.00
2017-09-28T20:27:39.289Z,0.00
2017-09-28T20:28:39.299Z,0.00
2017-09-28T20:29:39.318Z,0.00
2017-09-28T20:30:39.308Z,0.00
2017-09-28T20:31:39.315Z,0.00
2017-09-28T20:32:39.329Z,0.00
2017-09-28T20:33:39.325Z,0.00
2017-09-28T20:34:39.335Z,0.00
2017-09-28T20:35:39.334Z,0.00
2017-09-28T20:36:39.344Z,0.00
2017-09-28T20:37:39.346Z,0.00
2017-09-28T20:38:39.353Z,0.00
2017-09-28T20:39:39.367Z,0.00
2017-09-28T20:40:39.369Z,0.00
2017-09-28T20:41:39.375Z,0.00
2017-09-28T20:42:39.377Z,0.00
2017-09-28T20:43:39.382Z,0.00
2017-09-28T20:44:39.382Z,0.00
2017-09-28T20:45:39.396Z,0.00
2017-09-28T20:46:39.406Z,0.00
2017-09-28T20:47:39.399Z,0.00
2017-09-28T20:48:39.415Z,0.00
2017-09-28T20:49:39.422Z,0.00
2017-09-28T20:50:39.426Z,0.00
2017-09-28T20:51:39.424Z,0.00
2017-09-28T20:52:39.425Z,0.00
2017-09-28T20:53:39.435Z,0.00
2017-09-28T20:54:39.445Z,0.00
2017-09-28T20:55:39.450Z,0.00
2017-09-28T20:56:39.450Z,0.00
2017-09-28T20:57:39.460Z,0.00
2017-09-28T20:58:39.468Z,0.00
2017-09-28T20:59:39.474Z,0.00
2017-09-28T21:00:39.472Z,0.00
2017-09-28T21:01:39.475Z,0.00
2017-09-28T21:02:39.485Z,0.00
2017-09-28T21:03:39.495Z,0.00
2017-09-28T21:04:39.488Z,0.00
2017-09-28T21:05:39.505Z,0.00
2017-09-28T21:06:39.507Z,0.00
2017-09-28T21:07:39.517Z,0.00
2017-09-28T21:08:39.517Z,0.00
2017-09-28T21:09:39.523Z,0.00
2017-09-28T21:10:39.522Z,0.00
2017-09-28T21:11:39.562Z,0.00
2017-09-28T21:12:39.534Z,0.00
2017-09-28T21:13:39.549Z,0.00
2017-09-28T21:14:39.549Z,0.00
2017-09-28T21:15:39.558Z,0.00
2017-09-28T21:16:39.556Z,0.00
2017-09-28T21:17:39.573Z,0.00
2017-09-28T21:18:39.576Z,0.00
2017-09-28T21:19:39.573Z,0.00
2017-09-28T21:20:39.582Z,0.00
2017-09-28T21:21:39.582Z,0.00
2017-09-28T21:22:39.593Z,0.00
2017-09-28T21:23:39.594Z,0.00
2017-09-28T21:24:39.598Z,0.00
2017-09-28T21:25:39.606Z,0.00
2017-09-28T21:26:39.616Z,0.00
2017-09-28T21:27:39.614Z,0.00
2017-09-28T21:28:39.622Z,0.00
2017-09-28T21:29:39.647Z,0.00
2017-09-28T21:30:39.637Z,0.00
2017-09-28T21:31:39.636Z,0.00
2017-09-28T21:32:39.642Z,0.00
2017-09-28T21:33:39.653Z,0.00
2017-09-28T21:34:39.656Z,0.00
2017-09-28T21:35:39.657Z,0.00
2017-09-28T21:36:39.670Z,0.00
2017-09-28T21:37:39.682Z,0.00
2017-09-28T21:38:39.679Z,0.00
2017-09-28T21:39:39.682Z,0.00
2017-09-28T21:40:39.712Z,0.00
2017-09-28T21:41:39.692Z,0.00
2017-09-28T21:42:39.706Z,0.00
2017-09-28T21:43:39.710Z,0.00
2017-09-28T21:44:39.705Z,0.00
2017-09-28T21:45:39.717Z,0.00
2017-09-28T21:46:39.741Z,0.00
2017-09-28T21:47:39.722Z,0.00
2017-09-28T21:48:39.734Z,0.00
2017-09-28T21:49:39.794Z,0.00
2017-09-28T21:50:39.744Z,0.00
2017-09-28T21:51:39.744Z,0.00
2017-09-28T21:52:39.752Z,0.00
2017-09-28T21:53:39.764Z,0.00
2017-09-28T21:54:39.766Z,0.00
2017-09-28T21:55:39.773Z,0.00
2017-09-28T21:56:39.773Z,0.00
2017-09-28T21:57:39.777Z,0.00
2017-09-28T21:58:39.782Z,0.00
2017-09-28T21:59:40.361Z,0.00
2017-09-28T22:00:39.827Z,0.00
2017-09-28T22:01:39.798Z,0.00
2017-09-28T22:02:39.809Z,0.00
2017-09-28T22:03:39.805Z,0.00
2017-09-28T22:04:39.815Z,0.00
2017-09-28T22:05:39.824Z,0.00
2017-09-28T22:06:39.826Z,0.00
2017-09-28T22:07:39.837Z,0.00
2017-09-28T22:08:39.843Z,0.00
2017-09-28T22:09:39.847Z,0.00
2017-09-28T22:10:39.847Z,0.00
2017-09-28T22:11:39.853Z,0.00
2017-09-28T22:12:39.863Z,0.00
2017-09-28T22:13:39.863Z,0.00
2017-09-28T22:14:39.884Z,0.00
2017-09-28T22:15:39.874Z,0.00
2017-09-28T22:16:39.875Z,0.00
2017-09-28T22:17:39.881Z,0.00
2017-09-28T22:18:39.887Z,0.00
2017-09-28T22:19:39.951Z,0.00
2017-09-28T22:20:39.897Z,0.00
2017-09-28T22:21:39.906Z,0.00
2017-09-28T22:22:39.909Z,0.00
2017-09-28T22:23:39.914Z,0.00
2017-09-28T22:24:39.920Z,0.00
2017-09-28T22:25:40.024Z,0.00
2017-09-28T22:26:39.944Z,0.00
2017-09-28T22:27:39.941Z,0.00
2017-09-28T22:28:39.946Z,0.00
2017-09-28T22:29:39.949Z,0.00
2017-09-28T22:30:39.955Z,0.00
2017-09-28T22:31:40.019Z,0.00
2017-09-28T22:32:39.963Z,0.00
2017-09-28T22:33:39.971Z,0.00
2017-09-28T22:34:39.975Z,0.00
2017-09-28T22:35:39.985Z,0.00
2017-09-28T22:36:39.984Z,0.00
2017-09-28T22:37:40.083Z,0.00
2017-09-28T22:38:39.994Z,0.00
2017-09-28T22:39:40.005Z,0.00
2017-09-28T22:40:40.006Z,0.00
2017-09-28T22:41:40.016Z,0.00
2017-09-28T22:42:40.023Z,0.00
2017-09-28T22:43:40.092Z,0.00
2017-09-28T22:44:40.028Z,0.00
2017-09-28T22:45:40.034Z,0.00
2017-09-28T22:46:40.042Z,0.00
2017-09-28T22:47:40.044Z,0.00
2017-09-28T22:48:40.047Z,0.00
2017-09-28T22:49:40.251Z,0.00
2017-09-28T22:50:40.066Z,0.00
2017-09-28T22:51:40.070Z,0.00
2017-09-28T22:52:40.074Z,0.00
2017-09-28T22:53:40.098Z,0.00
2017-09-28T22:54:40.098Z,0.00
2017-09-28T22:55:40.213Z,0.00
2017-09-28T22:56:40.104Z,0.00
2017-09-28T22:57:40.093Z,0.00
2017-09-28T22:58:40.105Z,0.00
2017-09-28T22:59:40.118Z,0.00
2017-09-28T23:00:40.164Z,0.00
2017-09-28T23:01:40.297Z,0.00
2017-09-28T23:02:40.126Z,0.00
2017-09-28T23:03:40.139Z,0.00
2017-09-28T23:04:40.207Z,0.00
2017-09-28T23:05:40.188Z,0.00
2017-09-28T23:06:40.190Z,0.00
2017-09-28T23:07:40.312Z,0.00
2017-09-28T23:08:40.182Z,0.00
2017-09-28T23:09:40.174Z,0.00
2017-09-28T23:10:40.212Z,0.00
2017-09-28T23:11:40.215Z,0.00
2017-09-28T23:12:40.255Z,0.00
2017-09-28T23:13:40.185Z,0.00
2017-09-28T23:14:40.229Z,0.00
2017-09-28T23:15:40.252Z,0.00
2017-09-28T23:16:40.257Z,0.00
2017-09-28T23:17:40.245Z,0.00
2017-09-28T23:18:40.271Z,0.00
2017-09-28T23:19:40.217Z,0.00
2017-09-28T23:20:40.227Z,0.00
2017-09-28T23:21:40.240Z,0.00
2017-09-28T23:22:40.235Z,0.00
2017-09-28T23:23:40.240Z,0.00
2017-09-28T23:24:40.241Z,0.00
2017-09-28T23:25:40.255Z,0.00
2017-09-28T23:26:40.247Z,0.00
2017-09-28T23:27:40.255Z,0.00
2017-09-28T23:28:40.256Z,0.00
2017-09-28T23:29:40.268Z,0.00
2017-09-28T23:30:40.266Z,0.00
2017-09-28T23:31:40.275Z,0.00
2017-09-28T23:32:40.281Z,0.00
2017-09-28T23:33:40.283Z,0.00
2017-09-28T23:34:40.293Z,0.00
2017-09-28T23:35:40.297Z,0.00
2017-09-28T23:36:40.307Z,0.00
2017-09-28T23:37:40.493Z,0.00
2017-09-28T23:38:40.314Z,0.00
2017-09-28T23:39:40.318Z,0.00
2017-09-28T23:40:40.322Z,0.00
2017-09-28T23:41:40.324Z,0.00
2017-09-28T23:42:40.330Z,0.00
2017-09-28T23:43:40.334Z,0.00
2017-09-28T23:44:40.351Z,0.00
2017-09-28T23:45:40.346Z,0.00
2017-09-28T23:46:40.358Z,0.00
2017-09-28T23:47:40.357Z,0.00
2017-09-28T23:48:40.362Z,0.00
2017-09-28T23:49:40.370Z,0.00
2017-09-28T23:50:40.381Z,0.00
2017-09-28T23:51:40.379Z,0.00
2017-09-28T23:52:40.390Z,0.00
2017-09-28T23:53:40.403Z,0.00
2017-09-28T23:54:40.395Z,0.00
2017-09-28T23:55:40.403Z,0.00
2017-09-28T23:56:40.402Z,0.00
2017-09-28T23:57:40.413Z,0.00
2017-09-28T23:58:40.414Z,0.00
2017-09-28T23:59:40.420Z,0.00
